Scorpio — WDF2159 — position and weather

sailwx.info

Track history (hours):
 
Tides and Currents Weather Stations Pressure Air Temp Water Temp Dewpoint Dewpoint Depression Visibility Wind Speed Wind Dir Waves Ship Positions

Scorpio

Owner: San Francisco Bay Area Water Emergency Transportation Authority, San Francisco, CA. More information available from US FCC via Universal Licensing System and Coast Guard Vessel Documentation Center.

Last reported at 2018-Feb-17 04:20 UTC. Time now 2018-Feb-19 21:34 UTC.
Position N 37°48' W 122°24'.

Length 35 m.

Type: Ship (hazmat cat A). MMSI: 367425520.

Date/timePositionNaut miles runAvg speedWind from/ knotsBaromVisibWave heightAir tempDewpointWater temp
2018-Feb-17 04:20N 37°48' W 122°24'3 9.8
2018-Feb-17 04:01N 37°48' W 122°20'1 2.3
2018-Feb-17 03:31N 37°48' W 122°18'816.8
2018-Feb-17 03:01N 37°40' W 122°23'713.6
2018-Feb-17 02:30N 37°44' W 122°16'713.8
2018-Feb-17 02:00N 37°48' W 122°24'5 9.3
2018-Feb-17 01:30N 37°47' W 122°18'1 1.4
2018-Feb-17 01:00N 37°48' W 122°17'713.7
2018-Feb-17 00:31N 37°42' W 122°21'2 4.6
2018-Feb-17 00:00N 37°40' W 122°23'815.8
2018-Feb-16 23:30N 37°48' W 122°24'0 0.9
2018-Feb-16 23:00N 37°48' W 122°24'0 0.0
2018-Feb-16 22:30N 37°48' W 122°24'0 0.0
2018-Feb-16 22:00N 37°48' W 122°24'0 0.0
2018-Feb-16 21:30N 37°48' W 122°24'0 0.0
2018-Feb-16 21:00N 37°48' W 122°24'0 0.0
2018-Feb-16 20:30N 37°48' W 122°24'0 0.0
2018-Feb-16 20:00N 37°48' W 122°24'0 0.0
2018-Feb-16 19:30N 37°48' W 122°24'510.9
2018-Feb-16 19:00N 37°48' W 122°17'612.5
2018-Feb-16 18:30N 37°49' W 122°25'0 0.0
2018-Feb-16 18:00N 37°49' W 122°25'2 3.1
2018-Feb-16 17:31N 37°48' W 122°23'815.6
2018-Feb-16 17:00N 37°40' W 122°23'713.2
2018-Feb-16 16:31N 37°46' W 122°21'3 5.5
2018-Feb-16 16:00N 37°47' W 122°18'713.3
2018-Feb-16 15:30N 37°41' W 122°21'3 5.7
2018-Feb-16 15:01N 37°44' W 122°21'4 8.6
2018-Feb-16 14:31N 37°48' W 122°18'510.0
2018-Feb-16 14:00N 37°48' W 122°24'0 0.0
2018-Feb-16 04:13N 37°48' W 122°24'313.3
2018-Feb-16 04:01N 37°48' W 122°20'2 3.7
2018-Feb-16 03:31N 37°47' W 122°18'816.9
2018-Feb-16 03:00N 37°40' W 122°23'714.2
2018-Feb-16 02:31N 37°44' W 122°16'714.4
2018-Feb-16 02:00N 37°48' W 122°24'5 9.4
2018-Feb-16 01:31N 37°47' W 122°18'1 1.4
2018-Feb-16 01:00N 37°48' W 122°17'714.4
2018-Feb-16 00:31N 37°41' W 122°21'2 3.7
2018-Feb-15 23:59N 37°40' W 122°23'816.5
2018-Feb-15 23:30N 37°48' W 122°24'0 0.8
2018-Feb-15 23:00N 37°48' W 122°24'0 0.0
2018-Feb-15 18:52N 37°48' W 122°24'1 2.4
2018-Feb-15 18:29N 37°49' W 122°25'1 2.6
2018-Feb-15 17:59N 37°48' W 122°24'0 0.1
2018-Feb-15 17:30N 37°48' W 122°23'815.6
2018-Feb-15 17:00N 37°40' W 122°23'713.9
2018-Feb-15 16:31N 37°46' W 122°20'2 4.3
2018-Feb-15 15:57N 37°47' W 122°18'818.2
2018-Feb-15 15:31N 37°40' W 122°22'5 9.8
2018-Feb-15 15:01N 37°45' W 122°21'4 8.2
2018-Feb-15 14:30N 37°48' W 122°17'611.1
2018-Feb-15 13:59N 37°49' W 122°25'0 0.0
2018-Feb-15 04:11N 37°49' W 122°25'1 8.0
2018-Feb-15 04:00N 37°48' W 122°23'4 8.3
2018-Feb-15 03:30N 37°47' W 122°18'916.1
2018-Feb-15 02:59N 37°40' W 122°23'715.1
2018-Feb-15 02:30N 37°44' W 122°15'713.9
2018-Feb-15 01:59N 37°48' W 122°24'5 9.7
2018-Feb-15 01:30N 37°47' W 122°18'1 1.3
2018-Feb-15 00:59N 37°48' W 122°17'715.4
2018-Feb-15 00:30N 37°41' W 122°21'2 3.5
2018-Feb-15 00:00N 37°40' W 122°23'812.4
2018-Feb-14 23:22N 37°48' W 122°24'0 0.8
2018-Feb-14 22:51N 37°48' W 122°24'0 0.0
2018-Feb-14 22:30N 37°48' W 122°24'0 0.0
2018-Feb-14 22:00N 37°48' W 122°24'0 0.0
2018-Feb-14 21:30N 37°48' W 122°24'0 0.0
2018-Feb-14 20:57N 37°48' W 122°24'0 0.0
2018-Feb-14 20:27N 37°48' W 122°24'0 0.0
2018-Feb-14 20:00N 37°48' W 122°24'0 0.0
2018-Feb-14 19:30N 37°48' W 122°24'0 0.0
2018-Feb-14 19:00N 37°48' W 122°24'0 0.0
2018-Feb-14 18:30N 37°48' W 122°24'0 0.0
2018-Feb-14 18:00N 37°48' W 122°24'1 1.5
2018-Feb-14 17:30N 37°48' W 122°23'814.9
2018-Feb-14 16:59N 37°40' W 122°23'918.0
2018-Feb-14 16:30N 37°48' W 122°18'0 0.4
2018-Feb-14 16:00N 37°47' W 122°18'815.7
2018-Feb-14 15:28N 37°40' W 122°23'818.0
2018-Feb-14 15:00N 37°48' W 122°20'2 3.1
2018-Feb-14 14:28N 37°47' W 122°18'510.7
2018-Feb-14 14:00N 37°48' W 122°24'0 0.0
2018-Feb-14 04:11N 37°48' W 122°24'318.3
2018-Feb-14 04:00N 37°48' W 122°20'0 0.9
2018-Feb-14 03:30N 37°48' W 122°19'813.8
2018-Feb-14 02:54N 37°40' W 122°23'717.9
2018-Feb-14 02:30N 37°44' W 122°15'713.7
2018-Feb-14 01:58N 37°48' W 122°24'5 9.9
2018-Feb-14 01:30N 37°47' W 122°18'1 1.3
2018-Feb-14 00:58N 37°48' W 122°17'716.2
2018-Feb-14 00:30N 37°41' W 122°21'2 3.2
2018-Feb-13 23:59N 37°40' W 122°23'816.1
2018-Feb-13 23:29N 37°48' W 122°24'0 0.8
2018-Feb-13 22:59N 37°48' W 122°24'0 0.0
2018-Feb-13 22:29N 37°48' W 122°24'0 0.0
2018-Feb-13 21:59N 37°48' W 122°24'0 0.0
2018-Feb-13 21:29N 37°48' W 122°24'0 0.0
2018-Feb-13 20:59N 37°48' W 122°24'0 0.0
2018-Feb-13 20:29N 37°48' W 122°24'0 0.0
2018-Feb-13 19:59N 37°48' W 122°24'0 0.0
2018-Feb-13 19:29N 37°48' W 122°24'1 1.7
2018-Feb-13 18:58N 37°49' W 122°25'0 0.0
2018-Feb-13 18:28N 37°49' W 122°25'0 0.0
2018-Feb-13 17:58N 37°49' W 122°25'1 2.8
2018-Feb-13 17:31N 37°48' W 122°24'814.5
2018-Feb-13 16:58N 37°40' W 122°23'614.1
2018-Feb-13 16:31N 37°46' W 122°21'3 5.7
2018-Feb-13 16:00N 37°47' W 122°18'714.3
2018-Feb-13 15:30N 37°41' W 122°21'4 7.6
2018-Feb-13 15:00N 37°45' W 122°21'4 7.9
2018-Feb-13 14:31N 37°48' W 122°17'5 0.5
2018-Feb-13 04:21N 37°48' W 122°24'514.7
2018-Feb-13 04:00N 37°48' W 122°17'1 2.2
2018-Feb-13 03:30N 37°48' W 122°19'816.6
2018-Feb-13 03:00N 37°40' W 122°23'714.4
2018-Feb-13 02:30N 37°44' W 122°15'714.7
2018-Feb-13 02:00N 37°48' W 122°24'5 9.3
2018-Feb-13 01:30N 37°47' W 122°18'0 0.9
2018-Feb-13 01:00N 37°48' W 122°17'714.0
2018-Feb-13 00:31N 37°42' W 122°21'2 4.0
2018-Feb-13 00:00N 37°40' W 122°23'814.5
2018-Feb-12 23:27N 37°48' W 122°24'0 1.0
2018-Feb-12 23:00N 37°48' W 122°24'0 0.0
2018-Feb-12 22:30N 37°48' W 122°24'0 0.0
2018-Feb-12 22:00N 37°48' W 122°24'0 0.0
2018-Feb-12 21:30N 37°48' W 122°24'0 0.0
2018-Feb-12 21:00N 37°48' W 122°24'0 0.0
2018-Feb-12 20:30N 37°48' W 122°24'1 1.8
2018-Feb-12 20:00N 37°49' W 122°25'0 0.0
2018-Feb-12 19:30N 37°49' W 122°25'0 0.0
2018-Feb-12 19:00N 37°49' W 122°25'0 0.0
2018-Feb-12 18:30N 37°49' W 122°25'0 0.0
2018-Feb-12 18:00N 37°49' W 122°25'2 3.2
2018-Feb-12 17:31N 37°48' W 122°23'815.5
2018-Feb-12 17:00N 37°40' W 122°23'817.0
2018-Feb-12 16:31N 37°48' W 122°19'1 1.4
2018-Feb-12 16:01N 37°47' W 122°18'917.1
2018-Feb-12 15:31N 37°40' W 122°23'815.6
2018-Feb-12 15:00N 37°48' W 122°21'2 4.7
2018-Feb-12 14:30N 37°47' W 122°18'5 9.9
2018-Feb-12 14:01N 37°48' W 122°24'  
2018-Feb-10 04:09N 37°48' W 122°24'1 4.4
2018-Feb-10 04:01N 37°48' W 122°23'4 8.4
2018-Feb-10 03:31N 37°47' W 122°18'917.0
2018-Feb-10 03:00N 37°40' W 122°23'714.3
2018-Feb-10 02:31N 37°44' W 122°15'713.9
2018-Feb-10 01:59N 37°48' W 122°24'5 9.7
2018-Feb-10 01:30N 37°47' W 122°18'1 1.4
2018-Feb-10 01:00N 37°48' W 122°17'714.7
2018-Feb-10 00:30N 37°41' W 122°21'2 3.6
2018-Feb-10 00:00N 37°40' W 122°23'812.9
2018-Feb-09 23:23N 37°48' W 122°24'0 1.1
2018-Feb-09 23:00N 37°48' W 122°24'0 0.0
2018-Feb-09 22:44N 37°48' W 122°24'0 0.1
2018-Feb-09 19:00N 37°48' W 122°24'3 1.2
2018-Feb-09 16:31N 37°47' W 122°21'2 1.6
2018-Feb-09 15:01N 37°44' W 122°20'4 8.1
2018-Feb-09 14:30N 37°48' W 122°17'0 0.0
2018-Feb-09 03:31N 37°47' W 122°18'4 3.8
2018-Feb-09 02:30N 37°44' W 122°15'4 3.7
2018-Feb-09 01:30N 37°47' W 122°18'1 1.4
2018-Feb-09 01:00N 37°48' W 122°17'713.3
2018-Feb-09 00:30N 37°42' W 122°21'7 4.9
2018-Feb-08 23:00N 37°49' W 122°25'0 0.1
2018-Feb-08 21:30N 37°49' W 122°25'0 0.0
2018-Feb-08 21:00N 37°49' W 122°25'0 0.0
2018-Feb-08 19:30N 37°49' W 122°25'0 0.0
2018-Feb-08 18:00N 37°49' W 122°25'1 2.6
2018-Feb-08 17:30N 37°48' W 122°24'5 3.1
2018-Feb-08 16:00N 37°47' W 122°18'815.1
2018-Feb-08 15:30N 37°41' W 122°22'8 7.7
2018-Feb-08 14:30N 37°48' W 122°17'510.2
2018-Feb-08 14:00N 37°48' W 122°24'8 0.7
2018-Feb-08 02:30N 37°44' W 122°15'4 3.7
2018-Feb-08 01:30N 37°47' W 122°18'1 1.4
2018-Feb-08 01:00N 37°48' W 122°17'714.8
2018-Feb-08 00:30N 37°41' W 122°21'2 3.5
2018-Feb-08 00:00N 37°40' W 122°23'815.5
2018-Feb-07 23:30N 37°48' W 122°24'0 0.9
2018-Feb-07 23:00N 37°48' W 122°24'0 0.0
2018-Feb-07 22:30N 37°48' W 122°24'0 0.0
2018-Feb-07 21:59N 37°48' W 122°24'0 0.0
2018-Feb-07 21:29N 37°48' W 122°24'  
Track history (hours):
 
Tides and Currents Weather Stations Pressure Air Temp Water Temp Dewpoint Dewpoint Depression Visibility Wind Speed Wind Dir Waves Ship Positions

Scorpio

Owner: San Francisco Bay Area Water Emergency Transportation Authority, San Francisco, CA. More information available from US FCC via Universal Licensing System and Coast Guard Vessel Documentation Center.

Last reported at 2018-Feb-17 04:20 UTC. Time now 2018-Feb-19 21:34 UTC.
Position N 37°48' W 122°24'.

Length 35 m.

Type: Ship (hazmat cat A). MMSI: 367425520.

Date/timePositionNaut miles runAvg speedWind from/ knotsBaromVisibWave heightAir tempDewpointWater temp
2018-Feb-17 04:20N 37°48' W 122°24'3 9.8
2018-Feb-17 04:01N 37°48' W 122°20'1 2.3
2018-Feb-17 03:31N 37°48' W 122°18'816.8
2018-Feb-17 03:01N 37°40' W 122°23'713.6
2018-Feb-17 02:30N 37°44' W 122°16'713.8
2018-Feb-17 02:00N 37°48' W 122°24'5 9.3
2018-Feb-17 01:30N 37°47' W 122°18'1 1.4
2018-Feb-17 01:00N 37°48' W 122°17'713.7
2018-Feb-17 00:31N 37°42' W 122°21'2 4.6
2018-Feb-17 00:00N 37°40' W 122°23'815.8
2018-Feb-16 23:30N 37°48' W 122°24'0 0.9
2018-Feb-16 23:00N 37°48' W 122°24'0 0.0
2018-Feb-16 22:30N 37°48' W 122°24'0 0.0
2018-Feb-16 22:00N 37°48' W 122°24'0 0.0
2018-Feb-16 21:30N 37°48' W 122°24'0 0.0
2018-Feb-16 21:00N 37°48' W 122°24'0 0.0
2018-Feb-16 20:30N 37°48' W 122°24'0 0.0
2018-Feb-16 20:00N 37°48' W 122°24'0 0.0
2018-Feb-16 19:30N 37°48' W 122°24'510.9
2018-Feb-16 19:00N 37°48' W 122°17'612.5
2018-Feb-16 18:30N 37°49' W 122°25'0 0.0
2018-Feb-16 18:00N 37°49' W 122°25'2 3.1
2018-Feb-16 17:31N 37°48' W 122°23'815.6
2018-Feb-16 17:00N 37°40' W 122°23'713.2
2018-Feb-16 16:31N 37°46' W 122°21'3 5.5
2018-Feb-16 16:00N 37°47' W 122°18'713.3
2018-Feb-16 15:30N 37°41' W 122°21'3 5.7
2018-Feb-16 15:01N 37°44' W 122°21'4 8.6
2018-Feb-16 14:31N 37°48' W 122°18'510.0
2018-Feb-16 14:00N 37°48' W 122°24'0 0.0
2018-Feb-16 04:13N 37°48' W 122°24'313.3
2018-Feb-16 04:01N 37°48' W 122°20'2 3.7
2018-Feb-16 03:31N 37°47' W 122°18'816.9
2018-Feb-16 03:00N 37°40' W 122°23'714.2
2018-Feb-16 02:31N 37°44' W 122°16'714.4
2018-Feb-16 02:00N 37°48' W 122°24'5 9.4
2018-Feb-16 01:31N 37°47' W 122°18'1 1.4
2018-Feb-16 01:00N 37°48' W 122°17'714.4
2018-Feb-16 00:31N 37°41' W 122°21'2 3.7
2018-Feb-15 23:59N 37°40' W 122°23'816.5
2018-Feb-15 23:30N 37°48' W 122°24'0 0.8
2018-Feb-15 23:00N 37°48' W 122°24'0 0.0
2018-Feb-15 18:52N 37°48' W 122°24'1 2.4
2018-Feb-15 18:29N 37°49' W 122°25'1 2.6
2018-Feb-15 17:59N 37°48' W 122°24'0 0.1
2018-Feb-15 17:30N 37°48' W 122°23'815.6
2018-Feb-15 17:00N 37°40' W 122°23'713.9
2018-Feb-15 16:31N 37°46' W 122°20'2 4.3
2018-Feb-15 15:57N 37°47' W 122°18'818.2
2018-Feb-15 15:31N 37°40' W 122°22'5 9.8
2018-Feb-15 15:01N 37°45' W 122°21'4 8.2
2018-Feb-15 14:30N 37°48' W 122°17'611.1
2018-Feb-15 13:59N 37°49' W 122°25'0 0.0
2018-Feb-15 04:11N 37°49' W 122°25'1 8.0
2018-Feb-15 04:00N 37°48' W 122°23'4 8.3
2018-Feb-15 03:30N 37°47' W 122°18'916.1
2018-Feb-15 02:59N 37°40' W 122°23'715.1
2018-Feb-15 02:30N 37°44' W 122°15'713.9
2018-Feb-15 01:59N 37°48' W 122°24'5 9.7
2018-Feb-15 01:30N 37°47' W 122°18'1 1.3
2018-Feb-15 00:59N 37°48' W 122°17'715.4
2018-Feb-15 00:30N 37°41' W 122°21'2 3.5
2018-Feb-15 00:00N 37°40' W 122°23'812.4
2018-Feb-14 23:22N 37°48' W 122°24'0 0.8
2018-Feb-14 22:51N 37°48' W 122°24'0 0.0
2018-Feb-14 22:30N 37°48' W 122°24'0 0.0
2018-Feb-14 22:00N 37°48' W 122°24'0 0.0
2018-Feb-14 21:30N 37°48' W 122°24'0 0.0
2018-Feb-14 20:57N 37°48' W 122°24'0 0.0
2018-Feb-14 20:27N 37°48' W 122°24'0 0.0
2018-Feb-14 20:00N 37°48' W 122°24'0 0.0
2018-Feb-14 19:30N 37°48' W 122°24'0 0.0
2018-Feb-14 19:00N 37°48' W 122°24'0 0.0
2018-Feb-14 18:30N 37°48' W 122°24'0 0.0
2018-Feb-14 18:00N 37°48' W 122°24'1 1.5
2018-Feb-14 17:30N 37°48' W 122°23'814.9
2018-Feb-14 16:59N 37°40' W 122°23'918.0
2018-Feb-14 16:30N 37°48' W 122°18'0 0.4
2018-Feb-14 16:00N 37°47' W 122°18'815.7
2018-Feb-14 15:28N 37°40' W 122°23'818.0
2018-Feb-14 15:00N 37°48' W 122°20'2 3.1
2018-Feb-14 14:28N 37°47' W 122°18'510.7
2018-Feb-14 14:00N 37°48' W 122°24'0 0.0
2018-Feb-14 04:11N 37°48' W 122°24'318.3
2018-Feb-14 04:00N 37°48' W 122°20'0 0.9
2018-Feb-14 03:30N 37°48' W 122°19'813.8
2018-Feb-14 02:54N 37°40' W 122°23'717.9
2018-Feb-14 02:30N 37°44' W 122°15'713.7
2018-Feb-14 01:58N 37°48' W 122°24'5 9.9
2018-Feb-14 01:30N 37°47' W 122°18'1 1.3
2018-Feb-14 00:58N 37°48' W 122°17'716.2
2018-Feb-14 00:30N 37°41' W 122°21'2 3.2
2018-Feb-13 23:59N 37°40' W 122°23'816.1
2018-Feb-13 23:29N 37°48' W 122°24'0 0.8
2018-Feb-13 22:59N 37°48' W 122°24'0 0.0
2018-Feb-13 22:29N 37°48' W 122°24'0 0.0
2018-Feb-13 21:59N 37°48' W 122°24'0 0.0
2018-Feb-13 21:29N 37°48' W 122°24'0 0.0
2018-Feb-13 20:59N 37°48' W 122°24'0 0.0
2018-Feb-13 20:29N 37°48' W 122°24'0 0.0
2018-Feb-13 19:59N 37°48' W 122°24'0 0.0
2018-Feb-13 19:29N 37°48' W 122°24'1 1.7
2018-Feb-13 18:58N 37°49' W 122°25'0 0.0
2018-Feb-13 18:28N 37°49' W 122°25'0 0.0
2018-Feb-13 17:58N 37°49' W 122°25'1 2.8
2018-Feb-13 17:31N 37°48' W 122°24'814.5
2018-Feb-13 16:58N 37°40' W 122°23'614.1
2018-Feb-13 16:31N 37°46' W 122°21'3 5.7
2018-Feb-13 16:00N 37°47' W 122°18'714.3
2018-Feb-13 15:30N 37°41' W 122°21'4 7.6
2018-Feb-13 15:00N 37°45' W 122°21'4 7.9
2018-Feb-13 14:31N 37°48' W 122°17'5 0.5
2018-Feb-13 04:21N 37°48' W 122°24'514.7
2018-Feb-13 04:00N 37°48' W 122°17'1 2.2
2018-Feb-13 03:30N 37°48' W 122°19'816.6
2018-Feb-13 03:00N 37°40' W 122°23'714.4
2018-Feb-13 02:30N 37°44' W 122°15'714.7
2018-Feb-13 02:00N 37°48' W 122°24'5 9.3
2018-Feb-13 01:30N 37°47' W 122°18'0 0.9
2018-Feb-13 01:00N 37°48' W 122°17'714.0
2018-Feb-13 00:31N 37°42' W 122°21'2 4.0
2018-Feb-13 00:00N 37°40' W 122°23'814.5
2018-Feb-12 23:27N 37°48' W 122°24'0 1.0
2018-Feb-12 23:00N 37°48' W 122°24'0 0.0
2018-Feb-12 22:30N 37°48' W 122°24'0 0.0
2018-Feb-12 22:00N 37°48' W 122°24'0 0.0
2018-Feb-12 21:30N 37°48' W 122°24'0 0.0
2018-Feb-12 21:00N 37°48' W 122°24'0 0.0
2018-Feb-12 20:30N 37°48' W 122°24'1 1.8
2018-Feb-12 20:00N 37°49' W 122°25'0 0.0
2018-Feb-12 19:30N 37°49' W 122°25'0 0.0
2018-Feb-12 19:00N 37°49' W 122°25'0 0.0
2018-Feb-12 18:30N 37°49' W 122°25'0 0.0
2018-Feb-12 18:00N 37°49' W 122°25'2 3.2
2018-Feb-12 17:31N 37°48' W 122°23'815.5
2018-Feb-12 17:00N 37°40' W 122°23'817.0
2018-Feb-12 16:31N 37°48' W 122°19'1 1.4
2018-Feb-12 16:01N 37°47' W 122°18'917.1
2018-Feb-12 15:31N 37°40' W 122°23'815.6
2018-Feb-12 15:00N 37°48' W 122°21'2 4.7
2018-Feb-12 14:30N 37°47' W 122°18'5 9.9
2018-Feb-12 14:01N 37°48' W 122°24'  
2018-Feb-10 04:09N 37°48' W 122°24'1 4.4
2018-Feb-10 04:01N 37°48' W 122°23'4 8.4
2018-Feb-10 03:31N 37°47' W 122°18'917.0
2018-Feb-10 03:00N 37°40' W 122°23'714.3
2018-Feb-10 02:31N 37°44' W 122°15'713.9
2018-Feb-10 01:59N 37°48' W 122°24'5 9.7
2018-Feb-10 01:30N 37°47' W 122°18'1 1.4
2018-Feb-10 01:00N 37°48' W 122°17'714.7
2018-Feb-10 00:30N 37°41' W 122°21'2 3.6
2018-Feb-10 00:00N 37°40' W 122°23'812.9
2018-Feb-09 23:23N 37°48' W 122°24'0 1.1
2018-Feb-09 23:00N 37°48' W 122°24'0 0.0
2018-Feb-09 22:44N 37°48' W 122°24'0 0.1
2018-Feb-09 19:00N 37°48' W 122°24'3 1.2
2018-Feb-09 16:31N 37°47' W 122°21'2 1.6
2018-Feb-09 15:01N 37°44' W 122°20'4 8.1
2018-Feb-09 14:30N 37°48' W 122°17'0 0.0
2018-Feb-09 03:31N 37°47' W 122°18'4 3.8
2018-Feb-09 02:30N 37°44' W 122°15'4 3.7
2018-Feb-09 01:30N 37°47' W 122°18'1 1.4
2018-Feb-09 01:00N 37°48' W 122°17'713.3
2018-Feb-09 00:30N 37°42' W 122°21'7 4.9
2018-Feb-08 23:00N 37°49' W 122°25'0 0.1
2018-Feb-08 21:30N 37°49' W 122°25'0 0.0
2018-Feb-08 21:00N 37°49' W 122°25'0 0.0
2018-Feb-08 19:30N 37°49' W 122°25'0 0.0
2018-Feb-08 18:00N 37°49' W 122°25'1 2.6
2018-Feb-08 17:30N 37°48' W 122°24'5 3.1
2018-Feb-08 16:00N 37°47' W 122°18'815.1
2018-Feb-08 15:30N 37°41' W 122°22'8 7.7
2018-Feb-08 14:30N 37°48' W 122°17'510.2
2018-Feb-08 14:00N 37°48' W 122°24'8 0.7
2018-Feb-08 02:30N 37°44' W 122°15'4 3.7
2018-Feb-08 01:30N 37°47' W 122°18'1 1.4
2018-Feb-08 01:00N 37°48' W 122°17'714.8
2018-Feb-08 00:30N 37°41' W 122°21'2 3.5
2018-Feb-08 00:00N 37°40' W 122°23'815.5
2018-Feb-07 23:30N 37°48' W 122°24'0 0.9
2018-Feb-07 23:00N 37°48' W 122°24'0 0.0
2018-Feb-07 22:30N 37°48' W 122°24'0 0.0
2018-Feb-07 21:59N 37°48' W 122°24'0 0.0
2018-Feb-07 21:29N 37°48' W 122°24'  

Dump ship's entire track history